Aviation Digital Data Service (ADDS)

Output produced by METARs form (1434 UTC 10 December 2016)
found at http://www.aviationweather.gov/adds/metars/
 
KLNS 101353Z 24007KT 10SM CLR M02/M07 A3043 RMK AO2 SLP311 T10171072
KLNS 101143Z 1012/1112 27010KT P6SM FEW040 
     FM101500 30012G20KT P6SM SCT050 
     FM110000 29007KT P6SM BKN200